Time;durP1;ratioP1;P1;durP2;ratioP2;P2;SDS_P1;SDS_P2;PMS_P1;PMS_P2;Temp;Humidity;BMP_temperature;BMP_pressure;BME280_temperature;BME280_humidity;BME280_pressure;Samples;Min_cycle;Max_cycle;Signal;HPM_P1;HPM_P2
2022/09/22 00:01:00;;;;;;;;;9.00;6.00;;;;;15.54;46.25;101897.88;4956935;28;45399;-45
2022/09/22 00:03:36;;;;;;;;;7.00;5.00;;;;;15.54;46.40;101900.56;4957182;28;45289;-49
2022/09/22 00:06:08;;;;;;;;;5.00;5.00;;;;;15.50;46.18;101896.50;4956671;28;45403;-50
2022/09/22 00:08:37;;;;;;;;;5.00;5.00;;;;;15.48;46.23;101893.97;4971780;28;45387;-48
2022/09/22 00:11:04;;;;;;;;;7.33;4.33;;;;;15.44;46.00;101892.59;4957103;28;45454;-48
2022/09/22 00:13:32;;;;;;;;;5.67;4.00;;;;;15.41;45.41;101898.25;4956997;28;45406;-45
2022/09/22 00:15:59;;;;;;;;;6.00;4.00;;;;;15.29;45.99;101883.34;4957938;28;45417;-47
2022/09/22 00:18:24;;;;;;;;;5.00;4.00;;;;;15.39;46.07;101902.09;4957032;28;45380;-46
2022/09/22 00:20:50;;;;;;;;;5.33;3.33;;;;;15.37;45.47;101894.19;4956862;28;45186;-50
2022/09/22 00:23:15;;;;;;;;;7.00;7.00;;;;;15.31;46.20;101894.78;4957060;28;45224;-50
2022/09/22 00:25:40;;;;;;;;;8.00;5.00;;;;;15.31;46.32;101899.31;4956552;28;46261;-48
2022/09/22 00:28:06;;;;;;;;;5.00;5.00;;;;;15.28;46.48;101888.88;4956791;28;45421;-46
2022/09/22 00:30:31;;;;;;;;;8.00;5.00;;;;;15.29;46.42;101891.41;4956646;28;45570;-48
2022/09/22 00:32:57;;;;;;;;;5.00;5.00;;;;;15.28;46.29;101896.91;4956690;28;45337;-48
2022/09/22 00:35:22;;;;;;;;;6.33;6.33;;;;;15.23;46.94;101890.16;4958494;28;46165;-47
2022/09/22 00:37:47;;;;;;;;;5.67;4.00;;;;;15.26;47.12;101893.56;4956469;28;45417;-45
2022/09/22 00:40:13;;;;;;;;;7.33;5.00;;;;;15.23;46.81;101883.97;4956437;28;45331;-46
2022/09/22 00:42:38;;;;;;;;;8.00;4.00;;;;;15.24;46.92;101893.69;4956960;28;45482;-46
2022/09/22 00:45:05;;;;;;;;;5.33;4.33;;;;;15.23;47.04;101892.84;4955786;28;46043;-50
2022/09/22 00:47:37;;;;;;;;;9.33;6.00;;;;;15.21;47.06;101891.31;4955710;27;45400;-49
2022/09/22 00:50:09;;;;;;;;;8.00;5.00;;;;;15.19;47.08;101888.78;4956368;28;45379;-51
2022/09/22 00:52:47;;;;;;;;;4.33;4.33;;;;;15.16;46.97;101891.75;4956577;28;45304;-52
2022/09/22 00:55:36;;;;;;;;;4.00;4.00;;;;;15.12;47.06;101892.19;4956102;28;46982;-48
2022/09/22 00:58:07;;;;;;;;;4.00;4.00;;;;;15.17;46.89;101892.63;4956199;28;45277;-49
2022/09/22 01:00:32;;;;;;;;;6.67;5.00;;;;;15.15;46.89;101886.56;4956514;28;45362;-44
2022/09/22 01:03:00;;;;;;;;;4.33;3.67;;;;;15.15;46.63;101886.56;4956359;28;45498;-50
2022/09/22 01:05:29;;;;;;;;;3.33;3.00;;;;;15.12;46.88;101890.34;4956260;28;46193;-47
2022/09/22 01:07:54;;;;;;;;;3.00;3.00;;;;;15.04;46.98;101871.50;4956267;28;45435;-50
2022/09/22 01:10:20;;;;;;;;;4.33;4.33;;;;;15.11;46.79;101885.16;4956333;28;45367;-55
2022/09/22 01:13:03;;;;;;;;;4.67;4.33;;;;;15.09;46.94;101881.78;4956390;28;45312;-47
2022/09/22 01:16:30;;;;;;;;;5.00;5.00;;;;;15.09;47.15;101888.00;4955789;28;46472;-55
2022/09/22 01:19:24;;;;;;;;;11.33;8.00;;;;;15.08;47.29;101877.41;4995302;28;45464;-47
2022/09/22 01:22:31;;;;;;;;;6.33;4.33;;;;;15.05;47.42;101883.94;4995355;28;45298;-53
2022/09/22 01:25:15;;;;;;;;;9.00;5.00;;;;;15.04;47.79;101878.69;4937599;28;45343;-52
2022/09/22 01:27:52;;;;;;;;;6.33;4.67;;;;;15.02;47.58;101873.50;4936957;28;47118;-53
2022/09/22 01:30:23;;;;;;;;;8.33;7.00;;;;;14.98;48.09;101872.09;4937163;28;45560;-45
2022/09/22 01:33:41;;;;;;;;;5.67;4.67;;;;;14.97;48.17;101865.06;4937029;28;45580;-47
2022/09/22 01:36:39;;;;;;;;;7.00;5.00;;;;;14.94;47.92;101868.03;4937392;28;45340;-47
2022/09/22 01:39:20;;;;;;;;;10.00;7.33;;;;;14.92;48.22;101862.00;4936754;28;46389;-51
2022/09/22 01:41:56;;;;;;;;;9.67;7.00;;;;;14.87;48.65;101872.28;4936763;28;45395;-46
2022/09/22 01:44:28;;;;;;;;;7.33;7.33;;;;;14.83;48.53;101860.16;4937067;28;45553;-48
2022/09/22 01:47:02;;;;;;;;;7.00;7.00;;;;;14.85;48.57;101868.91;4936661;28;45419;-46
2022/09/22 01:49:32;;;;;;;;;9.33;5.00;;;;;14.83;49.00;101865.53;4920347;28;46171;-47
2022/09/22 01:52:06;;;;;;;;;10.00;6.00;;;;;14.72;49.09;101855.84;4896005;28;45312;-55
2022/09/22 01:54:57;;;;;;;;;9.00;5.00;;;;;14.81;49.32;101868.38;4896159;29;45455;-53
2022/09/22 01:57:50;;;;;;;;;5.00;5.00;;;;;14.80;49.38;101865.84;4896112;29;45471;-53
2022/09/22 02:00:16;;;;;;;;;8.67;6.33;;;;;14.79;49.56;101865.00;4895421;29;45390;-45
2022/09/22 02:02:51;;;;;;;;;9.00;8.67;;;;;14.78;49.51;101870.47;4912289;28;45599;-47
2022/09/22 02:05:31;;;;;;;;;9.00;8.00;;;;;14.76;49.56;101867.13;4914829;28;45545;-44
2022/09/22 02:07:59;;;;;;;;;9.00;7.67;;;;;14.62;49.80;101845.19;4914936;28;45449;-47
2022/09/22 02:10:32;;;;;;;;;7.00;6.33;;;;;14.58;49.41;101846.47;4914572;28;46973;-46
2022/09/22 02:12:59;;;;;;;;;5.67;5.67;;;;;14.70;49.94;101871.22;4955302;28;45328;-53
2022/09/22 02:18:17;;;;;;;;;10.00;7.00;;;;;14.64;50.29;101875.31;4955542;28;45387;-54
2022/09/22 02:20:42;;;;;;;;;10.00;5.67;;;;;14.62;50.27;101861.25;4955175;28;46057;-47
2022/09/22 02:23:08;;;;;;;;;8.33;7.33;;;;;14.56;50.26;101853.78;4954979;28;45845;-53
2022/09/22 02:25:36;;;;;;;;;11.00;7.00;;;;;14.55;50.17;101862.81;4955479;28;45241;-56
2022/09/22 02:28:02;;;;;;;;;8.33;8.00;;;;;14.56;50.14;101866.34;4955250;28;45446;-54
2022/09/22 02:30:28;;;;;;;;;8.00;8.00;;;;;14.45;50.47;101838.72;4954969;28;46602;-51
2022/09/22 02:32:56;;;;;;;;;9.33;7.67;;;;;14.53;50.35;101853.22;4954993;28;45316;-47
2022/09/22 02:35:26;;;;;;;;;11.67;8.67;;;;;14.51;50.44;101853.38;4954984;28;45300;-46
2022/09/22 02:38:34;;;;;;;;;14.33;8.33;;;;;14.50;50.50;101851.72;4955036;28;45404;-47
2022/09/22 02:41:14;;;;;;;;;15.33;10.33;;;;;14.47;50.80;101854.63;5033849;28;46167;-50
2022/09/22 02:43:49;;;;;;;;;9.67;6.67;;;;;14.46;50.48;101859.16;5034134;28;45483;-49
2022/09/22 02:46:33;;;;;;;;;7.67;7.00;;;;;14.45;50.58;101854.78;5034506;28;45547;-54
2022/09/22 02:49:04;;;;;;;;;10.67;7.67;;;;;14.45;50.90;101856.59;5034717;28;45328;-45
2022/09/22 02:51:30;;;;;;;;;10.67;8.67;;;;;14.41;50.98;101847.16;5034023;28;46449;-47
2022/09/22 02:53:56;;;;;;;;;8.67;7.00;;;;;14.40;50.89;101845.47;5034121;28;45302;-48
2022/09/22 02:56:22;;;;;;;;;9.67;8.33;;;;;14.28;51.19;101831.41;5034329;28;45329;-49
2022/09/22 02:58:47;;;;;;;;;5.33;5.33;;;;;14.37;51.02;101852.00;5034410;28;45547;-50
2022/09/22 03:01:13;;;;;;;;;9.00;8.00;;;;;14.35;51.31;101845.06;5033986;28;46289;-48
2022/09/22 03:03:38;;;;;;;;;7.33;7.33;;;;;14.33;51.04;101837.19;5034006;28;45474;-48
2022/09/22 03:06:05;;;;;;;;;10.67;7.67;;;;;14.26;51.37;101832.56;5034267;28;45948;-50
2022/09/22 03:08:30;;;;;;;;;12.33;9.33;;;;;14.23;51.36;101833.69;5034309;28;45451;-47
2022/09/22 03:10:55;;;;;;;;;10.67;6.33;;;;;14.26;51.38;101837.91;5037439;28;46235;-53
2022/09/22 03:13:21;;;;;;;;;9.33;8.00;;;;;14.26;51.62;101837.91;5037381;28;46621;-51
2022/09/22 03:15:46;;;;;;;;;8.00;8.00;;;;;14.22;51.52;101838.19;5024794;28;45440;-47
2022/09/22 03:18:12;;;;;;;;;13.67;9.67;;;;;14.12;51.16;101825.84;4957536;28;45356;-51
2022/09/22 03:20:38;;;;;;;;;11.33;10.67;;;;;14.16;51.79;101836.09;4957383;28;45893;-46
2022/09/22 03:23:04;;;;;;;;;10.33;10.00;;;;;14.16;51.82;101833.44;4957445;28;45455;-49
2022/09/22 03:25:29;;;;;;;;;16.00;9.00;;;;;14.16;51.78;101837.94;4957547;28;45219;-47
2022/09/22 03:27:54;;;;;;;;;8.00;8.00;;;;;14.14;51.84;101835.38;4957532;28;45238;-46
2022/09/22 03:30:20;;;;;;;;;8.00;8.00;;;;;14.11;51.98;101824.13;4957203;28;46139;-49
2022/09/22 03:32:45;;;;;;;;;9.00;8.67;;;;;14.10;51.78;101828.63;4957283;28;45174;-49
2022/09/22 03:35:10;;;;;;;;;13.67;8.33;;;;;14.11;52.00;101826.81;4972218;28;45421;-47
2022/09/22 03:37:36;;;;;;;;;8.67;8.00;;;;;14.05;52.19;101820.19;4957565;28;45383;-48
2022/09/22 03:40:03;;;;;;;;;10.67;8.33;;;;;14.07;51.87;101826.25;4956984;28;45348;-49
2022/09/22 03:42:28;;;;;;;;;9.33;9.33;;;;;14.04;52.13;101826.56;4957070;28;45374;-47
2022/09/22 03:44:54;;;;;;;;;8.00;8.00;;;;;14.02;52.16;101817.81;4957261;28;45370;-47
2022/09/22 03:47:19;;;;;;;;;7.33;7.00;;;;;14.02;52.22;101822.31;4957107;28;45362;-49
2022/09/22 03:49:44;;;;;;;;;10.33;7.67;;;;;13.97;52.12;101820.06;4956977;28;46205;-47
2022/09/22 03:52:10;;;;;;;;;11.33;9.00;;;;;13.97;51.81;101828.09;4957057;28;45407;-48
2022/09/22 03:54:36;;;;;;;;;10.33;7.00;;;;;13.97;52.24;101823.59;4957153;28;45315;-48
2022/09/22 03:57:02;;;;;;;;;11.00;8.33;;;;;13.97;52.11;101820.91;4957299;28;45430;-45
2022/09/22 03:59:28;;;;;;;;;13.00;7.00;;;;;13.95;51.91;101825.56;4956961;28;45432;-49
2022/09/22 04:01:53;;;;;;;;;8.33;6.00;;;;;13.89;51.36;101814.59;4955634;28;45451;-46
2022/09/22 04:04:19;;;;;;;;;7.00;5.67;;;;;13.92;51.51;101825.00;4957079;28;45622;-47
2022/09/22 04:06:44;;;;;;;;;5.00;5.00;;;;;13.89;51.22;101819.94;4957101;28;45448;-47
2022/09/22 04:09:09;;;;;;;;;4.33;3.00;;;;;13.88;50.03;101819.09;4957016;28;46062;-49
2022/09/22 04:11:36;;;;;;;;;4.33;3.00;;;;;13.85;50.20;101818.53;4956860;28;45364;-48
2022/09/22 04:14:03;;;;;;;;;8.00;7.00;;;;;13.84;49.98;101827.53;4957009;28;45287;-49
2022/09/22 04:16:30;;;;;;;;;6.00;5.67;;;;;13.81;50.03;101812.63;4957035;28;45322;-46
2022/09/22 04:18:55;;;;;;;;;5.33;3.67;;;;;13.75;49.82;101802.50;4956448;28;46150;-49
2022/09/22 04:21:20;;;;;;;;;4.00;4.00;;;;;13.76;50.64;101817.53;4955717;28;45339;-50
2022/09/22 04:23:46;;;;;;;;;5.67;5.67;;;;;13.73;50.26;101810.63;4956871;28;45270;-49
2022/09/22 04:26:11;;;;;;;;;6.33;5.00;;;;;13.70;50.25;101808.28;4957083;28;45442;-53
2022/09/22 04:28:36;;;;;;;;;7.00;6.00;;;;;13.67;50.24;101813.06;4956488;28;46292;-48
2022/09/22 04:31:02;;;;;;;;;6.33;5.00;;;;;13.65;50.46;101815.00;4956641;28;45445;-48
2022/09/22 04:33:27;;;;;;;;;6.33;5.00;;;;;13.61;50.99;101811.78;4956826;28;45352;-52
2022/09/22 04:35:52;;;;;;;;;6.00;4.33;;;;;13.62;50.82;101810.81;4956770;28;45300;-54
2022/09/22 04:38:18;;;;;;;;;7.67;6.33;;;;;13.61;50.58;101810.91;4956222;28;46242;-49
2022/09/22 04:40:44;;;;;;;;;6.00;5.00;;;;;13.59;50.43;101813.75;4956560;28;45403;-55
2022/09/22 04:43:09;;;;;;;;;5.33;4.67;;;;;13.56;50.48;101806.00;4956472;28;45297;-53
2022/09/22 04:45:35;;;;;;;;;11.33;8.00;;;;;13.52;50.84;101799.25;4956823;28;45435;-55
2022/09/22 04:48:00;;;;;;;;;7.67;6.00;;;;;13.43;50.89;101797.41;4954839;28;48324;-55
2022/09/22 04:50:27;;;;;;;;;9.33;7.33;;;;;13.49;51.26;101799.53;4956529;28;45376;-52
2022/09/22 04:52:54;;;;;;;;;9.00;8.00;;;;;13.47;51.53;101804.16;4956777;28;45396;-53
2022/09/22 04:55:21;;;;;;;;;9.00;7.33;;;;;13.46;51.54;101807.84;4956589;28;45480;-54
2022/09/22 04:57:51;;;;;;;;;9.33;6.67;;;;;13.42;52.10;101807.25;4956195;28;46353;-54
2022/09/22 05:00:17;;;;;;;;;8.00;4.67;;;;;13.32;51.92;101794.88;4956124;28;45438;-50
2022/09/22 05:02:43;;;;;;;;;9.00;4.33;;;;;13.39;51.46;101807.53;4956105;28;45361;-55
2022/09/22 05:05:08;;;;;;;;;10.00;7.33;;;;;13.39;51.71;101804.03;4956418;28;46096;-50
2022/09/22 05:07:34;;;;;;;;;4.33;4.33;;;;;13.37;51.79;101809.50;4956045;28;45458;-55
2022/09/22 05:09:59;;;;;;;;;9.67;9.00;;;;;13.26;52.18;101790.94;4956237;28;45640;-48
2022/09/22 05:12:25;;;;;;;;;9.00;8.00;;;;;13.35;52.36;101810.63;4956119;28;45331;-51
2022/09/22 05:14:51;;;;;;;;;8.33;8.33;;;;;13.36;52.13;101817.69;4956373;28;45442;-51
2022/09/22 05:17:16;;;;;;;;;8.00;8.00;;;;;13.34;52.27;101815.13;4956038;28;45277;-52
2022/09/22 05:19:42;;;;;;;;;11.67;8.67;;;;;13.32;51.86;101811.75;4955975;28;45446;-55
2022/09/22 05:22:07;;;;;;;;;7.67;7.67;;;;;13.29;51.58;101819.22;4956224;28;45418;-51
2022/09/22 05:24:33;;;;;;;;;8.67;8.67;;;;;13.13;52.63;101796.50;4956181;28;45665;-48
2022/09/22 05:26:58;;;;;;;;;14.33;8.00;;;;;13.23;52.63;101818.78;4956093;28;46134;-47
2022/09/22 05:29:24;;;;;;;;;8.00;8.00;;;;;13.25;52.82;101823.97;4956297;28;45311;-45
2022/09/22 05:31:49;;;;;;;;;8.33;7.00;;;;;13.24;53.23;101819.63;4955563;28;45781;-47
2022/09/22 05:34:15;;;;;;;;;7.00;7.00;;;;;13.24;52.78;101830.31;4956039;28;45462;-47
2022/09/22 05:36:41;;;;;;;;;17.67;10.33;;;;;13.19;52.67;101821.84;4955893;28;45311;-48
2022/09/22 05:39:06;;;;;;;;;8.00;8.00;;;;;13.14;53.27;101810.69;4955687;28;45423;-48
2022/09/22 05:41:31;;;;;;;;;9.00;9.00;;;;;13.24;53.32;101827.63;4955828;28;45330;-49
2022/09/22 05:43:57;;;;;;;;;10.33;8.67;;;;;13.26;53.66;101833.69;4956011;28;45454;-48
2022/09/22 05:46:22;;;;;;;;;8.67;8.67;;;;;13.28;53.18;101844.25;4955692;28;45977;-47
2022/09/22 05:48:48;;;;;;;;;10.00;9.67;;;;;13.30;53.20;101840.44;4955629;28;45428;-50
2022/09/22 05:51:13;;;;;;;;;12.67;9.00;;;;;13.33;53.65;101842.00;4955874;28;45334;-46
2022/09/22 05:53:38;;;;;;;;;11.00;9.00;;;;;13.33;53.52;101829.47;4956074;28;45413;-49
2022/09/22 05:56:04;;;;;;;;;10.67;8.67;;;;;13.34;53.41;101836.50;4955587;28;45389;-47
2022/09/22 05:58:29;;;;;;;;;9.67;8.00;;;;;13.36;53.10;101837.22;4957048;28;45407;-51
2022/09/22 06:00:56;;;;;;;;;8.33;6.00;;;;;13.40;53.12;101840.44;4955621;28;45316;-47
2022/09/22 06:03:22;;;;;;;;;9.67;8.00;;;;;13.32;53.24;101829.63;4955426;28;45411;-46
2022/09/22 06:05:48;;;;;;;;;6.33;6.33;;;;;13.33;53.16;101831.31;4955362;28;46623;-55
2022/09/22 06:08:13;;;;;;;;;9.67;7.33;;;;;13.46;52.63;101847.94;4955223;28;45450;-55
2022/09/22 06:10:39;;;;;;;;;8.67;8.33;;;;;13.47;52.68;101842.44;4955614;28;45393;-46
2022/09/22 06:13:07;;;;;;;;;7.00;7.00;;;;;13.48;52.38;101841.47;4955752;28;45338;-51
2022/09/22 06:15:34;;;;;;;;;8.33;5.00;;;;;13.52;52.41;101846.53;4955097;28;46606;-51
2022/09/22 06:18:01;;;;;;;;;9.67;8.33;;;;;13.54;52.21;101849.91;4955206;28;45442;-51
2022/09/22 06:20:26;;;;;;;;;9.33;7.67;;;;;13.61;52.56;101843.00;4955076;28;45334;-46
2022/09/22 06:22:52;;;;;;;;;10.33;8.33;;;;;13.64;52.50;101843.56;4955526;28;45364;-52
2022/09/22 06:25:18;;;;;;;;;9.00;8.00;;;;;13.66;52.21;101836.28;4955098;28;47209;-47
2022/09/22 06:27:43;;;;;;;;;7.67;6.33;;;;;13.69;52.34;101838.69;4955061;28;45443;-53
2022/09/22 06:30:10;;;;;;;;;9.00;9.00;;;;;13.72;51.93;101827.69;4955336;28;45382;-51
2022/09/22 06:32:38;;;;;;;;;12.00;9.00;;;;;13.75;51.83;101821.22;4955200;28;45449;-51
2022/09/22 06:35:05;;;;;;;;;13.67;9.00;;;;;13.78;51.53;101825.41;4953300;28;46232;-53
2022/09/22 06:37:31;;;;;;;;;14.33;12.00;;;;;13.78;51.98;101828.09;4954853;28;45356;-53
2022/09/22 06:39:57;;;;;;;;;15.00;12.00;;;;;13.77;51.77;101835.28;4954781;28;45393;-54
2022/09/22 06:42:23;;;;;;;;;15.33;14.67;;;;;13.77;52.53;101826.41;4955065;28;45524;-55
2022/09/22 06:44:48;;;;;;;;;17.00;14.67;;;;;13.73;52.34;101818.66;4956893;28;46428;-54
2022/09/22 06:47:14;;;;;;;;;18.33;14.33;;;;;13.81;52.18;101833.16;4957519;28;45322;-46
2022/09/22 06:49:41;;;;;;;;;16.67;13.67;;;;;13.83;52.38;101821.34;5053211;28;45808;-58
2022/09/22 06:52:11;;;;;;;;;15.67;13.33;;;;;13.87;52.85;101817.41;5014715;27;45458;-53
2022/09/22 06:54:40;;;;;;;;;16.33;12.33;;;;;13.93;52.73;101822.19;4996222;28;46273;-48
2022/09/22 06:57:06;;;;;;;;;18.00;13.00;;;;;13.87;52.43;101813.91;4996684;28;45331;-52
2022/09/22 06:59:32;;;;;;;;;15.00;13.00;;;;;13.97;52.67;101826.25;4981424;28;45444;-53
2022/09/22 07:01:57;;;;;;;;;11.00;11.00;;;;;14.01;52.57;101824.16;4977555;28;45252;-53
2022/09/22 07:04:22;;;;;;;;;17.67;15.67;;;;;14.05;52.24;101824.72;4993770;28;45440;-47
2022/09/22 07:06:49;;;;;;;;;17.33;14.00;;;;;14.09;52.36;101832.31;4996447;28;45315;-46
2022/09/22 07:09:15;;;;;;;;;14.33;12.33;;;;;14.12;52.27;101834.72;4997904;28;45361;-49
2022/09/22 07:11:40;;;;;;;;;12.67;12.00;;;;;14.16;51.82;101833.44;4996620;28;45418;-54
2022/09/22 07:14:07;;;;;;;;;9.00;7.67;;;;;14.19;50.25;101834.97;4997231;27;45406;-48
2022/09/22 07:16:32;;;;;;;;;17.00;14.33;;;;;14.19;50.72;101833.13;4997959;28;45342;-53
2022/09/22 07:18:57;;;;;;;;;10.00;8.00;;;;;14.21;51.21;101831.16;4996294;28;45421;-54
2022/09/22 07:21:31;;;;;;;;;13.00;10.67;;;;;14.26;50.80;101832.56;4996694;28;45390;-51
2022/09/22 07:23:57;;;;;;;;;9.00;8.33;;;;;14.31;50.50;101830.28;5029698;28;47066;-47
2022/09/22 07:26:31;;;;;;;;;11.00;11.00;;;;;14.36;50.44;101828.03;5078587;27;45302;-56
2022/09/22 07:28:59;;;;;;;;;10.67;9.00;;;;;14.43;50.13;101826.47;5079679;27;45416;-52
2022/09/22 07:31:26;;;;;;;;;11.33;7.67;;;;;14.51;49.44;101831.13;5080148;27;45525;-53
2022/09/22 07:33:53;;;;;;;;;8.33;8.33;;;;;14.53;49.19;101827.28;5079443;27;46202;-50
2022/09/22 07:36:21;;;;;;;;;11.33;9.00;;;;;14.48;49.49;101806.31;5079650;27;45376;-51
2022/09/22 07:38:49;;;;;;;;;6.33;6.33;;;;;14.49;48.73;101807.16;5079405;27;45346;-55
2022/09/22 07:41:20;;;;;;;;;9.33;8.00;;;;;14.65;48.78;101827.97;5079619;27;45315;-52
2022/09/22 07:43:49;;;;;;;;;8.00;5.67;;;;;14.66;48.34;101830.50;5079461;27;47087;-52
2022/09/22 07:46:15;;;;;;;;;8.67;6.67;;;;;14.71;48.34;101824.72;5079394;27;45342;-53
2022/09/22 07:48:46;;;;;;;;;5.33;5.33;;;;;14.73;48.25;101828.06;5079615;27;45230;-54
2022/09/22 07:51:21;;;;;;;;;7.67;5.67;;;;;14.79;48.12;101838.22;5079642;27;45511;-54
2022/09/22 07:53:49;;;;;;;;;7.67;5.33;;;;;14.85;48.04;101826.91;5079161;27;46180;-54
2022/09/22 07:56:17;;;;;;;;;5.33;5.33;;;;;14.91;47.95;101828.97;5007834;27;45329;-53
2022/09/22 07:58:48;;;;;;;;;5.00;5.00;;;;;14.90;47.81;101821.09;4988869;28;45247;-55
2022/09/22 08:01:15;;;;;;;;;4.67;4.67;;;;;15.01;47.51;101828.94;5008829;28;45473;-55
2022/09/22 08:03:41;;;;;;;;;5.00;5.00;;;;;15.07;47.50;101825.66;4974676;28;46426;-54
2022/09/22 08:06:11;;;;;;;;;9.00;6.67;;;;;15.07;47.30;101822.13;4974855;28;45536;-55
2022/09/22 08:08:41;;;;;;;;;9.33;9.00;;;;;15.23;47.51;101831.19;4975076;28;45469;-53
2022/09/22 08:11:13;;;;;;;;;8.00;6.33;;;;;15.24;47.10;101810.59;4975143;28;45437;-52
2022/09/22 08:13:41;;;;;;;;;6.00;6.00;;;;;15.44;47.52;101822.03;5049537;27;46137;-52
2022/09/22 08:16:09;;;;;;;;;7.67;7.67;;;;;15.58;46.80;101826.03;5075042;27;45890;-49
2022/09/22 08:18:35;;;;;;;;;5.33;5.33;;;;;15.72;46.48;101817.50;5074393;27;45353;-54
2022/09/22 08:21:01;;;;;;;;;7.67;6.67;;;;;15.89;45.84;101813.94;5008694;28;45549;-55
2022/09/22 08:23:30;;;;;;;;;12.33;9.33;;;;;16.49;44.98;101801.59;4974639;28;45524;-50
2022/09/22 08:25:56;;;;;;;;;10.33;6.33;;;;;18.99;41.62;101802.06;4974817;28;45413;-51
2022/09/22 08:28:22;;;;;;;;;11.00;8.00;;;;;21.13;37.61;101811.59;4974871;28;45434;-50
2022/09/22 08:30:47;;;;;;;;;10.67;6.00;;;;;22.73;35.31;101801.13;4974876;28;45417;-48
2022/09/22 08:33:13;;;;;;;;;7.67;6.00;;;;;24.17;33.14;101805.41;4974885;28;45438;-53
2022/09/22 08:35:50;;;;;;;;;8.00;6.00;;;;;25.55;30.61;101804.06;4991789;28;45489;-51
2022/09/22 08:38:16;;;;;;;;;9.75;7.00;;;;;26.81;28.00;101799.34;4974784;28;45433;-52
2022/09/22 08:40:45;;;;;;;;;9.75;6.25;;;;;27.93;30.86;101807.00;4975069;28;45439;-52
2022/09/22 08:43:11;;;;;;;;;7.50;6.50;;;;;28.79;26.08;101800.78;4974431;28;46132;-52
2022/09/22 08:45:39;;;;;;;;;9.75;6.75;;;;;29.70;24.70;101797.28;4975362;28;45426;-49
2022/09/22 08:53:54;;;;;;;;;5.20;5.20;;;;;32.23;21.45;101799.69;4974815;28;45842;-54
2022/09/22 08:56:34;;;;;;;;;5.40;5.40;;;;;32.62;21.30;101800.22;5052792;27;45426;-52
2022/09/22 08:59:21;;;;;;;;;8.20;5.80;;;;;32.96;20.54;101797.06;5074623;27;45417;-55
2022/09/22 09:01:50;;;;;;;;;3.80;3.80;;;;;33.40;19.91;101791.88;5073337;28;45647;-54
2022/09/22 09:04:19;;;;;;;;;6.00;5.80;;;;;33.69;20.47;101797.72;5074069;27;45437;-48
2022/09/22 09:06:50;;;;;;;;;4.60;3.80;;;;;34.22;19.48;101803.75;5072515;28;45480;-52
2022/09/22 09:09:45;;;;;;;;;6.40;6.40;;;;;34.54;20.59;101799.78;5074517;27;45511;-51
2022/09/22 09:12:41;;;;;;;;;7.80;7.00;;;;;34.75;19.65;101795.00;5074510;27;45523;-51
2022/09/22 09:15:25;;;;;;;;;7.00;5.80;;;;;35.00;19.24;101794.88;5030977;28;45371;-49
2022/09/22 09:17:55;;;;;;;;;10.20;7.40;;;;;34.96;19.15;101790.19;4974478;28;45427;-49
2022/09/22 09:20:37;;;;;;;;;11.80;7.60;;;;;34.76;20.18;101804.94;4974082;28;45421;-51
2022/09/22 09:23:12;;;;;;;;;8.40;8.20;;;;;34.21;20.96;101787.44;4974334;28;45443;-51
2022/09/22 09:25:40;;;;;;;;;10.60;8.60;;;;;33.57;20.15;101799.09;4974139;28;47273;-50
2022/09/22 09:28:15;;;;;;;;;8.20;8.20;;;;;33.23;21.73;101796.81;4974295;28;45497;-48
2022/09/22 09:30:49;;;;;;;;;8.60;8.00;;;;;33.05;21.07;101789.91;5073863;27;45462;-52
2022/09/22 09:33:37;;;;;;;;;8.60;8.00;;;;;32.70;21.11;101785.06;5056834;27;45692;-50
2022/09/22 09:36:02;;;;;;;;;6.20;6.20;;;;;32.53;20.92;101782.53;5025038;27;45473;-46
2022/09/22 09:38:33;;;;;;;;;8.75;7.75;;;;;32.41;21.20;101773.69;5072741;27;45511;-49
2022/09/22 09:41:10;;;;;;;;;9.80;8.80;;;;;32.45;21.48;101775.63;5073462;27;45493;-48
2022/09/22 09:43:41;;;;;;;;;7.80;7.20;;;;;32.74;20.73;101775.16;5073727;27;45936;-53
2022/09/22 09:46:35;;;;;;;;;8.00;8.00;;;;;32.98;21.42;101778.31;5073449;27;46294;-48
2022/09/22 09:49:13;;;;;;;;;6.40;6.40;;;;;33.28;21.24;101772.84;5072618;27;45527;-47
2022/09/22 09:51:44;;;;;;;;;11.40;7.20;;;;;33.45;20.62;101771.78;5073630;27;45704;-49
2022/09/22 09:54:13;;;;;;;;;10.00;8.20;;;;;33.77;19.82;101771.50;5073621;27;45428;-52
2022/09/22 09:57:01;;;;;;;;;6.40;6.40;;;;;34.17;21.02;101767.84;4979179;27;46684;-49
2022/09/22 10:02:20;;;;;;;;;5.20;5.20;;;;;35.41;19.80;101758.63;4973969;28;45461;-48
2022/09/22 10:04:59;;;;;;;;;5.00;3.40;;;;;37.34;19.16;101764.97;4973909;28;45480;-48
2022/09/22 10:07:29;;;;;;;;;4.00;2.60;;;;;39.24;14.84;101748.94;4973366;28;46125;-46
2022/09/22 10:09:55;;;;;;;;;7.00;4.00;;;;;40.82;13.46;101753.69;4973654;28;46607;-49
2022/09/22 10:12:29;;;;;;;;;3.80;3.80;;;;;41.70;15.40;101754.44;4973881;28;45481;-49
2022/09/22 10:15:00;;;;;;;;;3.80;3.00;;;;;42.34;11.77;101752.34;4974028;28;45473;-49
2022/09/22 10:17:51;;;;;;;;;3.20;3.20;;;;;43.46;12.36;101740.59;4973302;28;45503;-53
2022/09/22 10:20:25;;;;;;;;;6.40;6.20;;;;;44.19;13.09;101732.25;4976001;28;45312;-45
2022/09/22 10:22:55;;;;;;;;;2.40;2.20;;;;;44.92;10.96;101734.06;4974449;28;45347;-51
2022/09/22 10:25:22;;;;;;;;;2.20;1.00;;;;;45.41;9.83;101733.03;4974605;28;45360;-51
2022/09/22 10:28:01;;;;;;;;;1.40;0.60;;;;;45.61;10.79;101722.75;4973964;28;46263;-48
2022/09/22 10:30:31;;;;;;;;;3.20;2.60;;;;;46.13;9.32;101718.81;4972978;28;45257;-50
2022/09/22 10:33:19;;;;;;;;;1.20;1.20;;;;;46.48;10.94;101725.25;4974190;28;45436;-49
2022/09/22 10:36:10;;;;;;;;;1.60;1.60;;;;;46.86;11.51;101729.28;4989253;28;45460;-49
2022/09/22 10:38:41;;;;;;;;;2.20;1.00;;;;;46.64;8.60;101728.03;4974066;28;47060;-52
2022/09/22 10:41:18;;;;;;;;;2.20;2.20;;;;;46.89;10.88;101722.91;4973859;28;45382;-50
2022/09/22 10:43:58;;;;;;;;;2.00;1.20;;;;;47.19;10.49;101722.28;4974048;28;45268;-47
2022/09/22 10:46:31;;;;;;;;;1.20;1.20;;;;;47.45;8.04;101713.13;4974179;28;45370;-51
2022/09/22 10:49:22;;;;;;;;;1.60;1.60;;;;;47.90;8.58;101703.00;4973641;28;46199;-55
2022/09/22 10:52:24;;;;;;;;;0.80;0.80;;;;;48.05;8.32;101702.06;4973755;28;45243;-53
2022/09/22 10:55:09;;;;;;;;;0.80;0.80;;;;;48.19;8.86;101693.78;4973889;28;45468;-53
2022/09/22 10:57:37;;;;;;;;;0.60;0.60;;;;;48.15;9.23;101686.47;4974149;28;45381;-52
2022/09/22 11:00:18;;;;;;;;;1.00;1.00;;;;;48.05;9.45;101696.41;4973661;28;46062;-50
2022/09/22 11:03:21;;;;;;;;;3.60;1.00;;;;;47.62;9.44;101695.72;4973805;28;45443;-56
2022/09/22 11:12:36;;;;;;;;;1.40;1.40;;;;;47.22;9.09;101690.56;4973315;28;45477;-48
2022/09/22 11:15:19;;;;;;;;;2.60;1.60;;;;;47.37;8.96;101684.00;4973357;28;45476;-50
2022/09/22 11:17:51;;;;;;;;;1.80;0.20;;;;;47.10;9.36;101687.91;4973840;28;45462;-49
2022/09/22 11:20:40;;;;;;;;;0.20;0.20;;;;;46.86;8.52;101680.59;4973675;28;45600;-49
2022/09/22 11:23:24;;;;;;;;;3.80;3.80;;;;;46.79;8.54;101678.47;4973370;28;47274;-52
2022/09/22 11:26:05;;;;;;;;;2.80;2.00;;;;;46.58;7.81;101669.59;4973257;28;45439;-57
2022/09/22 11:28:33;;;;;;;;;1.60;1.60;;;;;46.46;8.77;101667.72;4973223;28;45351;-49
2022/09/22 11:30:59;;;;;;;;;0.80;0.40;;;;;46.37;8.61;101665.13;4975434;28;45464;-53
2022/09/22 11:33:49;;;;;;;;;0.20;0.20;;;;;46.42;9.95;101661.19;4976261;28;45594;-49
2022/09/22 11:36:23;;;;;;;;;0.80;0.00;;;;;46.28;9.45;101670.16;4976434;28;45540;-46
2022/09/22 11:38:54;;;;;;;;;1.20;1.20;;;;;46.30;9.74;101666.97;4977711;28;45536;-51
2022/09/22 11:42:01;;;;;;;;;4.40;1.80;;;;;46.06;9.98;101659.56;4976663;28;45337;-54
2022/09/22 11:44:38;;;;;;;;;1.00;1.00;;;;;45.77;9.57;101656.91;5016640;28;46140;-50
2022/09/22 11:47:22;;;;;;;;;2.00;0.80;;;;;46.20;9.16;101655.09;5016462;28;45419;-52
2022/09/22 11:50:30;;;;;;;;;1.80;1.00;;;;;46.62;10.18;101651.59;5016840;28;45371;-52
2022/09/22 11:53:25;;;;;;;;;2.20;2.20;;;;;46.10;9.64;101652.03;5016700;28;45421;-55
2022/09/22 11:56:30;;;;;;;;;2.00;2.00;;;;;45.38;9.41;101644.66;4938112;28;46283;-55
2022/09/22 11:59:05;;;;;;;;;2.60;2.60;;;;;45.37;9.29;101643.03;4899728;29;45448;-55
2022/09/22 12:01:37;;;;;;;;;2.80;2.00;;;;;45.17;10.11;101644.91;4900089;29;45449;-54